Charlottetown, Canada
Current Conditions -  °F | °C
As of 6:00 PM on Monday 20 Oct 2014 (Local Time) from CYYG Reporting Station
Broken Clouds Broken Clouds  
Wind Chill: 38°   Ceiling: 5000
Heat Index: 45°   Visibility: 15mi
Dew Point: 30°   Wind: 14mph
Humidity: 57%   Direction: 250°WSW
Pressure: 29.78"   Gusts: 30mph
Location:  46.24°N, 63.13°W
Report Text: CYYG 202100Z 25012G26KT 15SM BKN050 07/M01 A2978 RMK SC6 SLP087
Loading
Personal Weather Stations






























Interactive Weather Map New forecast layout! Learn more

10-Day Weather Forecast

Advertisements
Track Severe Weather on mobile